createdAt,value
2023-02-21T00:00:54.145Z,2.72
2023-02-21T00:03:39.412Z,3.47
2023-02-21T00:06:27.317Z,3.35
2023-02-21T00:09:12.748Z,3.75
2023-02-21T00:12:04.400Z,2.97
2023-02-21T00:14:49.751Z,3.25
2023-02-21T00:17:35.385Z,2.65
2023-02-21T00:20:20.803Z,3.35
2023-02-21T00:23:07.587Z,2.83
2023-02-21T00:25:52.989Z,3.00
2023-02-21T00:28:38.488Z,3.50
2023-02-21T00:31:24.390Z,3.00
2023-02-21T00:34:10.643Z,3.08
2023-02-21T00:36:56.518Z,3.45
2023-02-21T00:39:41.858Z,2.88
2023-02-21T00:42:27.222Z,2.92
2023-02-21T00:45:12.584Z,2.78
2023-02-21T00:47:58.009Z,2.17
2023-02-21T00:50:43.114Z,2.08
2023-02-21T00:53:28.454Z,2.70
2023-02-21T00:56:13.808Z,2.15
2023-02-21T00:58:59.232Z,2.75
2023-02-21T01:01:44.488Z,2.00
2023-02-21T01:04:29.848Z,2.47
2023-02-21T01:07:15.391Z,2.33
2023-02-21T01:10:01.374Z,2.60
2023-02-21T01:12:46.445Z,2.58
2023-02-21T01:15:32.969Z,2.13
2023-02-21T01:18:18.365Z,1.80
2023-02-21T01:21:03.823Z,2.80
2023-02-21T01:23:50.187Z,2.42
2023-02-21T01:26:35.564Z,2.50
2023-02-21T01:29:22.014Z,2.60
2023-02-21T01:32:08.420Z,2.13
2023-02-21T01:34:53.817Z,2.65
2023-02-21T01:37:39.571Z,1.75
2023-02-21T01:40:25.247Z,1.85
2023-02-21T01:43:10.672Z,2.15
2023-02-21T01:46:09.877Z,2.92
2023-02-21T01:48:55.706Z,2.58
2023-02-21T01:51:49.666Z,1.85
2023-02-21T01:54:36.605Z,2.55
2023-02-21T01:57:22.886Z,1.67
2023-02-21T02:00:09.515Z,2.55
2023-02-21T02:03:18.087Z,2.00
2023-02-21T02:06:09.967Z,1.65
2023-02-21T02:08:56.558Z,1.80
2023-02-21T02:12:06.961Z,1.92
2023-02-21T02:15:02.539Z,1.55
2023-02-21T02:17:37.026Z,1.88
2023-02-21T02:20:41.557Z,1.65
2023-02-21T02:23:42.461Z,1.48
2023-02-21T02:26:57.501Z,2.22
2023-02-21T02:29:32.565Z,1.73
2023-02-21T02:32:09.368Z,2.03
2023-02-21T02:34:40.293Z,2.72
2023-02-21T02:37:13.593Z,2.83
2023-02-21T02:39:48.003Z,1.88
2023-02-21T02:42:37.302Z,2.20
2023-02-21T02:45:27.840Z,2.40
2023-02-21T02:47:59.776Z,1.75
2023-02-21T02:50:29.644Z,1.65
2023-02-21T02:53:01.481Z,2.00
2023-02-21T02:55:38.344Z,2.55
2023-02-21T02:58:05.685Z,1.25
2023-02-21T03:00:34.150Z,2.20
2023-02-21T03:03:45.853Z,2.15
2023-02-21T03:06:38.049Z,1.90
2023-02-21T03:09:21.153Z,1.55
2023-02-21T03:14:43.599Z,2.20
2023-02-21T03:17:13.703Z,2.58
2023-02-21T03:19:42.697Z,1.33
2023-02-21T03:22:11.964Z,1.70
2023-02-21T03:24:40.189Z,2.08
2023-02-21T03:27:08.446Z,1.50
2023-02-21T03:30:01.074Z,1.50
2023-02-21T03:32:31.394Z,1.50
2023-02-21T03:34:59.673Z,1.88
2023-02-21T03:37:34.413Z,1.77
2023-02-21T03:40:02.517Z,1.77
2023-02-21T03:42:32.089Z,1.95
2023-02-21T03:44:59.241Z,2.45
2023-02-21T03:47:26.849Z,1.90
2023-02-21T03:49:53.792Z,1.95
2023-02-21T03:52:21.065Z,1.50
2023-02-21T03:54:47.925Z,1.80
2023-02-21T03:57:18.034Z,2.03
2023-02-21T03:59:46.812Z,1.67
2023-02-21T04:02:14.387Z,1.88
2023-02-21T04:04:41.998Z,2.08
2023-02-21T04:07:12.918Z,2.63
2023-02-21T04:09:39.755Z,2.20
2023-02-21T04:12:08.174Z,2.10
2023-02-21T04:14:36.821Z,2.80
2023-02-21T04:17:03.946Z,2.88
2023-02-21T04:19:31.262Z,2.72
2023-02-21T04:21:58.210Z,2.72
2023-02-21T04:24:25.995Z,3.20
2023-02-21T04:26:52.922Z,4.82
2023-02-21T04:29:20.305Z,2.72
2023-02-21T04:31:47.531Z,4.10
2023-02-21T04:34:16.611Z,2.33
2023-02-21T04:36:44.793Z,2.78
2023-02-21T04:39:11.681Z,2.03
2023-02-21T04:41:39.338Z,3.17
2023-02-21T04:44:06.649Z,2.60
2023-02-21T04:46:33.889Z,3.65
2023-02-21T04:49:01.570Z,3.55
2023-02-21T04:51:28.366Z,2.63
2023-02-21T04:53:55.610Z,3.88
2023-02-21T04:56:25.196Z,2.42
2023-02-21T04:58:52.293Z,2.78
2023-02-21T05:01:20.060Z,1.88
2023-02-21T05:03:47.664Z,1.73
2023-02-21T05:06:19.325Z,2.22
2023-02-21T05:08:46.033Z,2.10
2023-02-21T05:11:13.261Z,2.45
2023-02-21T05:13:40.588Z,2.85
2023-02-21T05:16:07.548Z,2.05
2023-02-21T05:18:34.821Z,1.92
2023-02-21T05:21:11.734Z,2.05
2023-02-21T05:23:40.939Z,2.08
2023-02-21T05:26:11.478Z,3.00
2023-02-21T05:28:39.676Z,2.30
2023-02-21T05:31:06.903Z,2.58
2023-02-21T05:33:33.775Z,2.58
2023-02-21T05:36:00.689Z,2.40
2023-02-21T05:38:27.542Z,2.30
2023-02-21T05:40:54.433Z,2.42
2023-02-21T05:43:21.468Z,2.05
2023-02-21T05:45:48.236Z,2.33
2023-02-21T05:48:15.446Z,2.28
2023-02-21T05:50:42.138Z,3.75
2023-02-21T05:53:10.471Z,2.58
2023-02-21T05:55:37.828Z,2.55
2023-02-21T05:58:04.951Z,2.90
2023-02-21T06:00:32.032Z,3.25
2023-02-21T06:02:58.803Z,1.88
2023-02-21T06:05:25.739Z,2.10
2023-02-21T06:07:52.709Z,1.90
2023-02-21T06:10:19.944Z,3.60
2023-02-21T06:12:47.122Z,3.03
2023-02-21T06:15:13.980Z,3.63
2023-02-21T06:17:41.853Z,1.85
2023-02-21T06:20:15.102Z,3.60
2023-02-21T06:22:41.936Z,3.60
2023-02-21T06:25:09.448Z,3.20
2023-02-21T06:27:36.242Z,2.35
2023-02-21T06:30:04.298Z,2.50
2023-02-21T06:32:31.230Z,2.70
2023-02-21T06:34:57.953Z,2.33
2023-02-21T06:37:24.794Z,2.63
2023-02-21T06:39:51.749Z,3.00
2023-02-21T06:42:19.157Z,2.15
2023-02-21T06:44:47.297Z,2.75
2023-02-21T06:47:14.324Z,3.28
2023-02-21T06:49:41.195Z,2.28
2023-02-21T06:52:08.967Z,3.03
2023-02-21T06:54:36.075Z,3.08
2023-02-21T06:57:02.960Z,2.75
2023-02-21T06:59:29.814Z,2.40
2023-02-21T07:01:56.955Z,2.10
2023-02-21T07:04:24.598Z,2.40
2023-02-21T07:06:52.157Z,2.40
2023-02-21T07:09:19.010Z,2.55
2023-02-21T07:11:47.078Z,2.97
2023-02-21T07:14:14.476Z,2.83
2023-02-21T07:16:41.443Z,3.30
2023-02-21T07:19:08.273Z,2.53
2023-02-21T07:21:35.011Z,2.67
2023-02-21T07:24:02.003Z,3.15
2023-02-21T07:26:28.731Z,3.05
2023-02-21T07:28:55.555Z,2.83
2023-02-21T07:31:22.762Z,3.50
2023-02-21T07:33:49.709Z,2.92
2023-02-21T07:36:17.107Z,3.03
2023-02-21T07:38:43.930Z,3.55
2023-02-21T07:41:10.921Z,3.05
2023-02-21T07:43:39.253Z,3.10
2023-02-21T07:46:11.089Z,2.83
2023-02-21T07:48:38.461Z,2.75
2023-02-21T07:51:07.373Z,3.65
2023-02-21T07:53:34.303Z,4.05
2023-02-21T07:56:01.116Z,4.05
2023-02-21T07:58:27.889Z,3.28
2023-02-21T08:00:55.725Z,3.97
2023-02-21T08:03:23.293Z,4.05
2023-02-21T08:05:50.357Z,3.70
2023-02-21T08:08:17.506Z,3.97
2023-02-21T08:10:44.362Z,4.03
2023-02-21T08:13:11.215Z,3.55
2023-02-21T08:15:37.904Z,4.00
2023-02-21T08:18:04.659Z,3.65
2023-02-21T08:20:31.886Z,3.65
2023-02-21T08:22:58.978Z,3.30
2023-02-21T08:25:25.765Z,5.22
2023-02-21T08:27:55.377Z,3.75
2023-02-21T08:30:22.570Z,4.50
2023-02-21T08:32:51.268Z,3.90
2023-02-21T08:35:19.764Z,3.15
2023-02-21T08:37:47.950Z,3.97
2023-02-21T08:40:16.246Z,3.53
2023-02-21T08:42:43.187Z,4.25
2023-02-21T08:45:16.210Z,3.97
2023-02-21T08:47:42.995Z,4.18
2023-02-21T08:50:10.295Z,3.42
2023-02-21T08:52:37.037Z,3.83
2023-02-21T08:55:03.971Z,3.83
2023-02-21T08:57:30.706Z,3.78
2023-02-21T08:59:57.539Z,3.53
2023-02-21T09:02:25.803Z,3.70
2023-02-21T09:04:53.090Z,3.30
2023-02-21T09:07:21.813Z,4.57
2023-02-21T09:09:48.653Z,3.50
2023-02-21T09:12:15.518Z,3.58
2023-02-21T09:14:43.295Z,3.40
2023-02-21T09:17:12.882Z,3.83
2023-02-21T09:19:39.753Z,3.40
2023-02-21T09:22:10.578Z,4.72
2023-02-21T09:24:38.183Z,7.03
2023-02-21T09:27:05.855Z,4.13
2023-02-21T09:29:45.545Z,4.20
2023-02-21T09:32:14.211Z,4.00
2023-02-21T09:34:41.609Z,4.97
2023-02-21T09:37:08.715Z,4.22
2023-02-21T09:39:39.108Z,3.17
2023-02-21T09:42:06.033Z,3.50
2023-02-21T09:44:32.817Z,3.92
2023-02-21T09:47:06.642Z,2.90
2023-02-21T09:49:41.726Z,2.80
2023-02-21T09:52:21.991Z,2.88
2023-02-21T09:54:54.848Z,3.17
2023-02-21T09:57:21.713Z,3.33
2023-02-21T09:59:49.393Z,3.40
2023-02-21T10:02:38.008Z,4.25
2023-02-21T10:05:18.026Z,3.28
2023-02-21T10:08:16.449Z,3.45
2023-02-21T10:10:47.446Z,4.13
2023-02-21T10:13:32.638Z,3.67
2023-02-21T10:16:13.312Z,2.72
2023-02-21T10:18:50.625Z,2.90
2023-02-21T10:21:23.325Z,2.55
2023-02-21T10:23:51.938Z,3.45
2023-02-21T10:26:26.855Z,2.05
2023-02-21T10:28:56.747Z,2.33
2023-02-21T10:31:39.330Z,2.65
2023-02-21T10:34:09.898Z,2.30
2023-02-21T10:36:36.786Z,1.70
2023-02-21T10:39:07.989Z,2.30
2023-02-21T10:41:37.990Z,2.15
2023-02-21T10:44:11.376Z,0.70
2023-02-21T10:46:45.687Z,0.60
2023-02-21T10:49:29.386Z,0.50
2023-02-21T10:52:17.274Z,0.55
2023-02-21T10:55:03.391Z,0.57
2023-02-21T10:57:34.264Z,0.70
2023-02-21T11:00:10.084Z,0.50
2023-02-21T11:02:40.877Z,0.50
2023-02-21T11:05:14.780Z,0.90
2023-02-21T11:07:43.331Z,0.52
2023-02-21T11:10:36.112Z,0.82
2023-02-21T11:13:07.927Z,0.38
2023-02-21T11:15:35.001Z,0.40
2023-02-21T11:18:14.999Z,0.93
2023-02-21T11:20:45.025Z,0.52
2023-02-21T11:23:26.348Z,0.50
2023-02-21T11:26:05.711Z,0.63
2023-02-21T11:28:38.115Z,0.70
2023-02-21T11:31:17.559Z,1.02
2023-02-21T11:33:57.616Z,1.10
2023-02-21T11:36:30.348Z,1.10
2023-02-21T11:39:16.486Z,1.30
2023-02-21T11:41:50.358Z,0.63
2023-02-21T11:44:27.019Z,0.50
2023-02-21T11:47:14.153Z,0.63
2023-02-21T11:49:51.839Z,0.52
2023-02-21T11:52:26.628Z,0.55
2023-02-21T11:54:53.361Z,0.63
2023-02-21T11:57:23.186Z,0.77
2023-02-21T11:59:59.354Z,0.52
2023-02-21T12:03:10.104Z,0.50
2023-02-21T12:05:50.169Z,0.60
2023-02-21T12:08:35.369Z,0.40
2023-02-21T12:11:14.655Z,0.70
2023-02-21T12:13:50.410Z,0.50
2023-02-21T12:16:25.881Z,0.60
2023-02-21T12:19:32.537Z,0.68
2023-02-21T12:22:18.150Z,0.40
2023-02-21T12:25:14.183Z,0.70
2023-02-21T12:27:59.041Z,0.70
2023-02-21T12:30:49.910Z,0.85
2023-02-21T12:33:28.988Z,0.80
2023-02-21T12:36:15.868Z,0.43
2023-02-21T12:38:48.853Z,0.80
2023-02-21T12:41:38.243Z,1.38
2023-02-21T12:44:22.242Z,0.70
2023-02-21T12:46:58.180Z,0.52
2023-02-21T12:49:40.062Z,0.68
2023-02-21T12:52:15.270Z,0.98
2023-02-21T12:54:45.065Z,0.90
2023-02-21T12:57:15.138Z,0.77
2023-02-21T12:59:54.875Z,0.55
2023-02-21T13:02:44.737Z,0.52
2023-02-21T13:05:18.865Z,0.68
2023-02-21T13:10:19.418Z,0.45
2023-02-21T13:13:03.871Z,0.57
2023-02-21T13:15:31.653Z,0.70
2023-02-21T13:20:36.635Z,0.80
2023-02-21T13:23:40.832Z,0.43
2023-02-21T13:26:26.488Z,0.85
2023-02-21T13:28:57.436Z,0.57
2023-02-21T13:31:26.738Z,0.85
2023-02-21T13:34:03.256Z,0.70
2023-02-21T13:36:40.032Z,0.80
2023-02-21T13:39:09.801Z,0.70
2023-02-21T13:41:42.755Z,0.70
2023-02-21T13:44:19.554Z,0.60
2023-02-21T13:46:46.379Z,0.52
2023-02-21T13:49:44.480Z,0.52
2023-02-21T13:52:23.365Z,0.85
2023-02-21T13:55:29.757Z,0.88
2023-02-21T13:57:57.570Z,0.70
2023-02-21T14:03:00.529Z,0.82
2023-02-21T14:05:47.788Z,0.80
2023-02-21T14:08:35.590Z,0.88
2023-02-21T14:11:05.442Z,0.65
2023-02-21T14:13:36.579Z,1.13
2023-02-21T14:16:12.441Z,0.75
2023-02-21T14:18:39.288Z,1.27
2023-02-21T14:21:43.118Z,1.10
2023-02-21T14:24:09.714Z,1.00
2023-02-21T14:27:01.818Z,1.20
2023-02-21T14:29:43.711Z,1.75
2023-02-21T14:32:10.637Z,1.38
2023-02-21T14:34:38.517Z,1.70
2023-02-21T14:37:28.332Z,1.10
2023-02-21T14:40:00.033Z,1.65
2023-02-21T14:42:26.675Z,1.48
2023-02-21T14:45:11.816Z,1.30
2023-02-21T14:48:00.179Z,1.08
2023-02-21T14:51:04.331Z,0.73
2023-02-21T14:54:08.846Z,0.80
2023-02-21T14:56:59.650Z,0.85
2023-02-21T14:59:35.480Z,1.00
2023-02-21T15:02:14.237Z,0.98
2023-02-21T15:04:58.148Z,1.10
2023-02-21T15:07:33.161Z,1.00
2023-02-21T15:10:07.181Z,0.90
2023-02-21T15:12:39.052Z,1.40
2023-02-21T15:15:14.034Z,1.60
2023-02-21T15:17:40.806Z,2.42
2023-02-21T15:20:16.895Z,3.92
2023-02-21T15:22:44.117Z,3.05
2023-02-21T15:25:11.131Z,3.17
2023-02-21T15:27:59.022Z,3.17
2023-02-21T15:30:35.548Z,3.47
2023-02-21T15:33:05.438Z,2.47
2023-02-21T15:35:36.329Z,3.45
2023-02-21T15:38:06.471Z,4.22
2023-02-21T15:40:33.397Z,4.15
2023-02-21T15:43:01.634Z,3.25
2023-02-21T15:45:45.110Z,3.97
2023-02-21T15:48:12.030Z,3.90
2023-02-21T15:50:46.969Z,3.00
2023-02-21T15:53:24.562Z,3.00
2023-02-21T15:55:52.856Z,2.67
2023-02-21T16:01:08.457Z,6.13
2023-02-21T16:03:41.682Z,6.50
2023-02-21T16:06:28.697Z,4.22
2023-02-21T16:09:17.197Z,4.38
2023-02-21T16:11:48.532Z,3.40
2023-02-21T16:14:38.812Z,4.07
2023-02-21T16:17:24.102Z,3.28
2023-02-21T16:19:53.965Z,2.80
2023-02-21T16:22:23.886Z,2.20
2023-02-21T16:24:51.247Z,3.03
2023-02-21T16:27:18.791Z,2.92
2023-02-21T16:29:45.643Z,3.55
2023-02-21T16:32:20.072Z,3.13
2023-02-21T16:34:47.556Z,2.90
2023-02-21T16:37:14.766Z,2.38
2023-02-21T16:39:42.617Z,2.47
2023-02-21T16:42:09.620Z,2.35
2023-02-21T16:44:36.445Z,4.15
2023-02-21T16:47:03.249Z,3.88
2023-02-21T16:49:30.005Z,5.32
2023-02-21T16:51:56.918Z,7.65
2023-02-21T16:54:23.893Z,8.85
2023-02-21T16:56:52.306Z,9.73
2023-02-21T16:59:22.010Z,9.20
2023-02-21T17:01:48.967Z,9.48
2023-02-21T17:04:15.701Z,11.63
2023-02-21T17:06:42.843Z,11.60
2023-02-21T17:09:19.156Z,9.65
2023-02-21T17:11:46.285Z,8.05
2023-02-21T17:14:13.084Z,7.35
2023-02-21T17:16:39.894Z,7.03
2023-02-21T17:19:06.937Z,5.63
2023-02-21T17:21:33.828Z,6.22
2023-02-21T17:24:00.561Z,7.63
2023-02-21T17:26:27.452Z,7.75
2023-02-21T17:28:54.150Z,7.57
2023-02-21T17:31:20.973Z,7.97
2023-02-21T17:33:48.165Z,7.30
2023-02-21T17:36:19.287Z,8.50
2023-02-21T17:38:46.406Z,8.98
2023-02-21T17:41:15.669Z,7.90
2023-02-21T17:43:42.862Z,6.78
2023-02-21T17:46:11.611Z,6.38
2023-02-21T17:48:40.658Z,6.72
2023-02-21T17:51:07.971Z,8.70
2023-02-21T17:53:34.927Z,6.80
2023-02-21T17:56:02.096Z,6.47
2023-02-21T17:58:36.689Z,4.78
2023-02-21T18:01:04.165Z,4.63
2023-02-21T18:03:30.908Z,4.70
2023-02-21T18:05:59.047Z,4.85
2023-02-21T18:08:25.807Z,6.07
2023-02-21T18:10:52.542Z,8.10
2023-02-21T18:13:23.328Z,7.13
2023-02-21T18:15:50.178Z,5.85
2023-02-21T18:18:17.009Z,6.40
2023-02-21T18:20:44.158Z,5.43
2023-02-21T18:23:11.017Z,4.65
2023-02-21T18:25:37.898Z,3.72
2023-02-21T18:28:05.038Z,4.75
2023-02-21T18:30:31.868Z,5.72
2023-02-21T18:32:58.587Z,6.93
2023-02-21T18:35:25.309Z,5.88
2023-02-21T18:37:52.091Z,5.75
2023-02-21T18:40:19.413Z,7.03
2023-02-21T18:42:47.672Z,3.88
2023-02-21T18:45:14.497Z,8.57
2023-02-21T18:47:42.246Z,8.27
2023-02-21T18:50:09.430Z,7.82
2023-02-21T18:52:36.251Z,6.30
2023-02-21T18:55:04.081Z,8.63
2023-02-21T18:57:31.438Z,8.80
2023-02-21T18:59:58.428Z,6.20
2023-02-21T19:02:25.559Z,5.07
2023-02-21T19:04:52.330Z,5.10
2023-02-21T19:07:19.082Z,4.63
2023-02-21T19:09:46.884Z,5.35
2023-02-21T19:12:13.769Z,5.07
2023-02-21T19:14:40.635Z,6.20
2023-02-21T19:17:08.663Z,4.93
2023-02-21T19:19:36.441Z,5.90
2023-02-21T19:22:04.019Z,4.63
2023-02-21T19:24:30.889Z,5.07
2023-02-21T19:26:57.673Z,3.90
2023-02-21T19:29:24.449Z,4.55
2023-02-21T19:31:51.466Z,4.30
2023-02-21T19:34:18.279Z,3.80
2023-02-21T19:36:45.029Z,3.70
2023-02-21T19:39:12.037Z,3.38
2023-02-21T19:41:40.425Z,2.75
2023-02-21T19:44:08.598Z,2.65
2023-02-21T19:46:35.679Z,2.53
2023-02-21T19:49:07.050Z,2.45
2023-02-21T19:51:34.283Z,2.78
2023-02-21T19:54:01.534Z,2.20
2023-02-21T19:56:28.362Z,3.08
2023-02-21T19:58:55.358Z,2.75
2023-02-21T20:01:23.095Z,2.75
2023-02-21T20:03:50.837Z,2.90
2023-02-21T20:06:18.414Z,3.42
2023-02-21T20:08:48.305Z,3.08
2023-02-21T20:11:18.804Z,3.10
2023-02-21T20:13:45.982Z,7.20
2023-02-21T20:16:17.031Z,5.43
2023-02-21T20:18:44.255Z,5.35
2023-02-21T20:21:18.678Z,4.95
2023-02-21T20:23:45.579Z,6.22
2023-02-21T20:26:13.005Z,7.10
2023-02-21T20:28:39.821Z,9.48
2023-02-21T20:31:08.587Z,7.63
2023-02-21T20:33:38.802Z,5.93
2023-02-21T20:36:06.376Z,3.50
2023-02-21T20:38:33.638Z,3.70
2023-02-21T20:41:00.557Z,3.65
2023-02-21T20:43:27.444Z,2.97
2023-02-21T20:45:54.883Z,3.67
2023-02-21T20:48:25.619Z,4.40
2023-02-21T20:50:53.682Z,4.28
2023-02-21T20:53:20.426Z,2.90
2023-02-21T20:55:47.618Z,2.90
2023-02-21T20:58:14.530Z,3.90
2023-02-21T21:00:42.591Z,4.57
2023-02-21T21:03:12.085Z,4.20
2023-02-21T21:05:38.883Z,4.43
2023-02-21T21:08:05.631Z,4.80
2023-02-21T21:10:32.835Z,6.20
2023-02-21T21:12:59.775Z,5.38
2023-02-21T21:15:26.556Z,9.05
2023-02-21T21:17:53.320Z,13.07
2023-02-21T21:20:21.589Z,10.77
2023-02-21T21:22:48.522Z,8.80
2023-02-21T21:25:17.015Z,10.85
2023-02-21T21:27:44.798Z,11.48
2023-02-21T21:30:13.299Z,11.60
2023-02-21T21:32:40.718Z,11.80
2023-02-21T21:35:07.688Z,11.10
2023-02-21T21:37:35.871Z,9.90
2023-02-21T21:40:18.718Z,8.20
2023-02-21T21:42:48.984Z,6.82
2023-02-21T21:45:29.106Z,5.28
2023-02-21T21:48:00.221Z,5.47
2023-02-21T21:50:27.143Z,4.30
2023-02-21T21:52:58.200Z,5.93
2023-02-21T21:55:27.879Z,3.70
2023-02-21T21:57:55.976Z,4.22
2023-02-21T22:00:27.086Z,4.53
2023-02-21T22:02:59.669Z,3.28
2023-02-21T22:05:28.753Z,3.90
2023-02-21T22:07:56.125Z,4.40
2023-02-21T22:10:24.308Z,2.80
2023-02-21T22:12:52.593Z,2.45
2023-02-21T22:15:20.880Z,2.33
2023-02-21T22:17:48.343Z,1.92
2023-02-21T22:20:20.956Z,2.15
2023-02-21T22:22:49.631Z,2.03
2023-02-21T22:27:43.685Z,2.10
2023-02-21T22:30:13.768Z,1.83
2023-02-21T22:32:44.306Z,2.33
2023-02-21T22:35:18.203Z,1.95
2023-02-21T22:37:50.683Z,1.83
2023-02-21T22:40:25.573Z,2.40
2023-02-21T22:42:56.240Z,2.70
2023-02-21T22:45:24.210Z,1.45
2023-02-21T22:47:52.343Z,2.85
2023-02-21T22:50:20.408Z,1.90
2023-02-21T22:52:57.417Z,2.22
2023-02-21T22:55:26.005Z,2.65
2023-02-21T23:00:23.809Z,3.00
2023-02-21T23:02:51.768Z,2.67
2023-02-21T23:05:21.684Z,3.30
2023-02-21T23:07:53.519Z,3.17
2023-02-21T23:10:23.851Z,3.70
2023-02-21T23:12:52.934Z,4.72
2023-02-21T23:15:20.261Z,4.50
2023-02-21T23:17:48.390Z,4.05
2023-02-21T23:20:22.100Z,4.15
2023-02-21T23:22:54.260Z,4.05
2023-02-21T23:25:25.624Z,3.95
2023-02-21T23:27:57.471Z,5.60
2023-02-21T23:30:36.387Z,5.60
2023-02-21T23:33:06.339Z,3.60
2023-02-21T23:35:34.904Z,3.60
2023-02-21T23:38:01.947Z,4.72
2023-02-21T23:40:31.571Z,4.43
2023-02-21T23:42:58.389Z,4.70
2023-02-21T23:45:26.391Z,4.82
2023-02-21T23:47:55.230Z,5.15
2023-02-21T23:52:53.195Z,6.10
2023-02-21T23:55:25.036Z,5.38
2023-02-21T23:57:52.914Z,5.30
